Time;durP1;ratioP1;P1;durP2;ratioP2;P2;SDS_P1;SDS_P2;PMS_P1;PMS_P2;Temp;Humidity;BMP_temperature;BMP_pressure;BME280_temperature;BME280_humidity;BME280_pressure;Samples;Min_cycle;Max_cycle;Signal;HPM_P1;HPM_P2
2021/03/18 00:03:38;;;;;;;8.15;3.70;;;2.90;93.80;;;;;;8336496;28;20753;-71
2021/03/18 00:07:48;;;;;;;6.50;3.97;;;3.00;93.90;;;;;;8329610;28;20048;-70
2021/03/18 00:11:53;;;;;;;6.90;3.55;;;3.00;93.90;;;;;;8326678;28;20060;-70
2021/03/18 00:16:00;;;;;;;9.75;4.13;;;3.00;93.80;;;;;;8326019;28;20052;-70
2021/03/18 00:20:09;;;;;;;8.48;3.40;;;3.00;93.90;;;;;;8326649;28;21459;-70
2021/03/18 00:24:17;;;;;;;8.52;3.58;;;3.00;93.90;;;;;;8333280;28;20072;-71
2021/03/18 00:28:23;;;;;;;6.70;3.45;;;3.00;93.90;;;;;;8325787;28;20057;-72
2021/03/18 00:32:30;;;;;;;8.63;3.55;;;2.90;93.90;;;;;;8340017;28;20514;-72
2021/03/18 00:36:35;;;;;;;6.65;3.35;;;2.90;93.90;;;;;;8339158;28;20372;-71
2021/03/18 00:40:52;;;;;;;6.93;3.60;;;3.00;93.90;;;;;;8332161;28;20057;-71
2021/03/18 00:44:55;;;;;;;8.77;3.45;;;3.00;93.90;;;;;;8335527;28;20079;-71
2021/03/18 00:49:00;;;;;;;7.57;3.60;;;2.90;93.80;;;;;;8344280;28;20065;-71
2021/03/18 00:53:06;;;;;;;14.18;4.13;;;3.00;93.90;;;;;;8318915;28;20033;-70
2021/03/18 00:57:10;;;;;;;9.32;4.43;;;2.90;93.90;;;;;;8323409;28;20076;-70
2021/03/18 01:01:22;;;;;;;11.10;5.22;;;2.90;93.90;;;;;;8315310;28;20053;-68
2021/03/18 01:05:34;;;;;;;12.95;5.03;;;2.90;93.90;;;;;;8331062;28;20123;-71
2021/03/18 01:09:38;;;;;;;8.82;4.18;;;2.90;93.80;;;;;;8326151;28;20080;-71
2021/03/18 01:13:45;;;;;;;10.75;4.32;;;2.90;93.90;;;;;;8331109;28;20052;-71
2021/03/18 01:17:50;;;;;;;10.82;3.88;;;4.20;94.30;;;;;;8329031;28;20041;-71
2021/03/18 01:21:56;;;;;;;8.93;4.35;;;2.90;93.90;;;;;;8331219;28;20053;-71
2021/03/18 01:26:01;;;;;;;8.40;3.45;;;2.90;93.90;;;;;;8318130;28;20518;-71
2021/03/18 01:30:12;;;;;;;9.30;4.20;;;2.50;93.80;;;;;;8320315;28;20076;-71
2021/03/18 01:34:18;;;;;;;8.77;3.65;;;2.80;93.90;;;;;;8313678;28;20075;-71
2021/03/18 01:38:22;;;;;;;9.32;3.42;;;2.80;93.90;;;;;;8332035;28;20048;-71
2021/03/18 01:42:27;;;;;;;8.50;3.38;;;2.80;94.00;;;;;;8333844;28;20071;-71
2021/03/18 01:46:31;;;;;;;9.10;3.63;;;2.80;94.00;;;;;;8321271;28;20056;-71
2021/03/18 01:50:39;;;;;;;12.27;3.40;;;2.80;94.00;;;;;;8322731;28;20045;-71
2021/03/18 01:54:43;;;;;;;8.48;3.53;;;2.80;94.00;;;;;;8319493;28;20154;-71
2021/03/18 01:58:49;;;;;;;8.18;3.17;;;2.80;93.90;;;;;;8310813;28;20072;-71
2021/03/18 02:02:56;;;;;;;16.83;4.20;;;2.80;94.00;;;;;;8332088;28;20060;-72
2021/03/18 02:07:01;;;;;;;8.20;3.50;;;2.70;94.00;;;;;;8338041;28;20045;-71
2021/03/18 02:11:06;;;;;;;7.85;3.50;;;2.70;94.00;;;;;;8336383;28;20049;-71
2021/03/18 02:15:11;;;;;;;6.43;3.42;;;2.70;94.00;;;;;;8337909;28;20099;-71
2021/03/18 02:19:33;;;;;;;9.10;3.28;;;2.70;94.00;;;;;;8316301;28;20041;-71
2021/03/18 02:23:50;;;;;;;7.85;3.65;;;2.70;94.10;;;;;;8328182;28;20049;-70
2021/03/18 02:28:36;;;;;;;7.82;3.95;;;2.70;94.10;;;;;;8324833;28;20056;-70
2021/03/18 02:33:02;;;;;;;8.77;3.55;;;2.70;94.10;;;;;;8321350;28;20110;-70
2021/03/18 02:37:12;;;;;;;9.85;3.60;;;2.70;94.10;;;;;;8324563;28;20084;-71
2021/03/18 02:41:23;;;;;;;9.45;3.92;;;2.70;94.00;;;;;;8322221;28;20040;-70
2021/03/18 02:45:32;;;;;;;11.30;3.75;;;2.60;94.00;;;;;;8346982;28;20163;-70
2021/03/18 02:49:39;;;;;;;9.35;3.70;;;2.60;94.30;;;;;;8318354;28;20106;-71
2021/03/18 02:53:45;;;;;;;8.35;3.58;;;2.60;94.00;;;;;;8320393;28;20056;-71
2021/03/18 02:57:55;;;;;;;9.73;3.90;;;2.60;94.10;;;;;;8338598;28;20047;-70
2021/03/18 03:02:05;;;;;;;10.07;3.63;;;2.60;94.20;;;;;;8335773;28;20049;-70
2021/03/18 03:06:13;;;;;;;15.48;4.03;;;2.50;94.10;;;;;;8333132;28;20045;-70
2021/03/18 03:10:20;;;;;;;12.48;4.53;;;2.60;94.20;;;;;;8303149;28;20621;-71
2021/03/18 03:14:24;;;;;;;8.50;3.78;;;2.60;94.10;;;;;;8322868;28;20509;-70
2021/03/18 03:18:31;;;;;;;7.50;3.72;;;2.50;94.10;;;;;;8322365;28;20056;-71
2021/03/18 03:22:39;;;;;;;9.57;4.40;;;2.50;94.10;;;;;;8315898;28;20040;-71
2021/03/18 03:26:44;;;;;;;8.65;4.05;;;2.40;94.10;;;;;;8330900;28;20068;-71
2021/03/18 03:30:49;;;;;;;12.13;4.07;;;2.40;94.20;;;;;;8336079;28;20115;-70
2021/03/18 03:34:53;;;;;;;11.77;3.97;;;2.40;94.10;;;;;;8321345;28;20076;-71
2021/03/18 03:38:58;;;;;;;10.65;4.03;;;2.40;94.20;;;;;;8321157;28;20427;-70
2021/03/18 03:43:05;;;;;;;9.18;4.40;;;2.40;94.20;;;;;;8315359;28;20055;-71
2021/03/18 03:47:10;;;;;;;8.35;4.18;;;2.40;94.30;;;;;;8322461;28;20384;-70
2021/03/18 03:51:19;;;;;;;10.93;4.32;;;2.40;94.30;;;;;;8338228;28;20063;-71
2021/03/18 03:55:45;;;;;;;8.32;4.20;;;2.40;94.20;;;;;;8313171;28;20052;-72
2021/03/18 03:59:53;;;;;;;11.55;5.05;;;2.30;94.20;;;;;;8320901;28;20049;-72
2021/03/18 04:04:06;;;;;;;8.68;3.72;;;2.30;94.30;;;;;;8317227;28;20049;-72
2021/03/18 04:08:12;;;;;;;15.35;4.43;;;2.30;94.30;;;;;;8328938;28;20826;-72
2021/03/18 04:12:22;;;;;;;12.32;3.90;;;2.20;94.20;;;;;;8318448;28;20140;-72
2021/03/18 04:16:30;;;;;;;9.10;3.78;;;2.30;94.30;;;;;;8313284;28;20076;-71
2021/03/18 04:20:37;;;;;;;10.55;3.92;;;2.70;94.40;;;;;;8316388;28;20400;-71
2021/03/18 04:24:44;;;;;;;8.02;4.13;;;2.20;94.30;;;;;;8321593;28;20064;-71
2021/03/18 04:28:51;;;;;;;7.57;4.20;;;2.20;94.20;;;;;;8334614;28;20057;-71
2021/03/18 04:32:59;;;;;;;8.07;4.32;;;2.20;94.20;;;;;;8312228;28;20053;-71
2021/03/18 04:37:09;;;;;;;10.38;3.80;;;2.20;94.20;;;;;;8318368;28;20452;-72
2021/03/18 04:41:14;;;;;;;11.43;4.10;;;1.60;94.20;;;;;;8320044;28;20059;-72
2021/03/18 04:45:20;;;;;;;10.82;4.20;;;2.10;94.20;;;;;;8325351;28;20057;-70
2021/03/18 04:49:25;;;;;;;12.27;4.10;;;2.10;94.30;;;;;;8334496;28;20525;-70
2021/03/18 04:53:30;;;;;;;9.25;3.95;;;3.10;94.60;;;;;;8343393;28;20077;-71
2021/03/18 04:57:35;;;;;;;8.15;3.92;;;2.00;94.30;;;;;;8343978;28;20083;-71
2021/03/18 05:01:47;;;;;;;11.25;3.92;;;2.00;94.30;;;;;;8325007;28;20114;-71
2021/03/18 05:05:55;;;;;;;11.00;3.72;;;2.00;94.30;;;;;;8352435;28;20514;-71
2021/03/18 05:10:00;;;;;;;10.02;3.75;;;2.00;94.30;;;;;;8325483;28;20077;-71
2021/03/18 05:14:08;;;;;;;8.52;4.45;;;1.90;94.30;;;;;;8325847;28;20049;-71
2021/03/18 05:18:18;;;;;;;7.22;3.38;;;1.90;94.30;;;;;;8327471;28;20040;-70
2021/03/18 05:22:22;;;;;;;9.23;4.15;;;1.80;94.50;;;;;;8321820;28;20136;-71
2021/03/18 05:26:24;;;;;;;9.03;4.03;;;1.80;94.40;;;;;;8328371;28;20049;-71
2021/03/18 05:30:32;;;;;;;8.32;4.03;;;1.90;94.30;;;;;;8305993;28;20072;-70
2021/03/18 05:34:36;;;;;;;11.80;3.85;;;1.90;94.30;;;;;;8337402;28;20081;-70
2021/03/18 05:38:43;;;;;;;11.15;4.03;;;1.80;94.20;;;;;;8322962;28;20045;-70
2021/03/18 05:42:48;;;;;;;8.63;4.45;;;1.80;94.20;;;;;;8338466;28;20052;-70
2021/03/18 05:46:55;;;;;;;8.88;4.10;;;1.80;94.30;;;;;;8331180;28;20077;-70
2021/03/18 05:51:03;;;;;;;8.98;3.85;;;1.30;94.10;;;;;;8324259;28;20041;-70
2021/03/18 05:55:09;;;;;;;10.90;4.13;;;1.80;94.40;;;;;;8340584;28;20041;-70
2021/03/18 05:59:18;;;;;;;16.98;4.90;;;1.80;94.30;;;;;;8325199;28;20049;-70
2021/03/18 06:03:23;;;;;;;19.58;4.78;;;1.80;94.30;;;;;;8302974;28;20118;-70
2021/03/18 06:07:35;;;;;;;11.00;4.47;;;1.80;94.30;;;;;;8331526;28;20049;-70
2021/03/18 06:11:40;;;;;;;8.27;4.30;;;1.80;94.20;;;;;;8325979;28;20107;-71
2021/03/18 06:15:44;;;;;;;10.40;4.20;;;1.90;94.20;;;;;;8319007;28;20606;-70
2021/03/18 06:19:45;;;;;;;6.82;4.00;;;1.80;94.10;;;;;;8320503;28;20045;-70
2021/03/18 06:24:03;;;;;;;9.00;4.38;;;1.80;94.10;;;;;;8327701;28;20558;-71
2021/03/18 06:28:15;;;;;;;7.93;4.13;;;1.90;94.20;;;;;;8332930;28;20045;-71
2021/03/18 06:32:23;;;;;;;10.88;4.47;;;1.90;94.10;;;;;;8319957;28;20049;-67
2021/03/18 06:36:33;;;;;;;9.93;4.97;;;1.90;94.10;;;;;;8317799;28;20056;-66
2021/03/18 06:40:45;;;;;;;9.68;3.58;;;2.00;94.20;;;;;;8319749;28;20647;-71
2021/03/18 06:45:03;;;;;;;10.38;4.47;;;2.00;94.40;;;;;;8343716;28;20052;-71
2021/03/18 06:49:12;;;;;;;9.57;4.53;;;2.20;94.30;;;;;;8347165;28;20055;-71
2021/03/18 06:53:18;;;;;;;11.02;4.45;;;2.30;94.10;;;;;;8313482;28;20057;-70
2021/03/18 06:57:29;;;;;;;11.88;4.22;;;2.30;94.40;;;;;;8330454;28;20052;-67
2021/03/18 07:01:34;;;;;;;9.90;4.45;;;2.30;94.40;;;;;;8319506;28;20044;-67
2021/03/18 07:05:43;;;;;;;11.15;4.38;;;2.30;94.70;;;;;;8326891;28;20048;-67
2021/03/18 07:09:51;;;;;;;13.35;4.95;;;2.40;94.70;;;;;;8325916;28;20368;-67
2021/03/18 07:13:57;;;;;;;7.35;4.63;;;2.30;94.80;;;;;;8299959;28;20052;-67
2021/03/18 07:18:01;;;;;;;12.52;6.00;;;2.30;94.90;;;;;;8320717;28;20045;-67
2021/03/18 07:22:19;;;;;;;11.57;5.43;;;2.30;94.90;;;;;;8322438;28;20052;-68
2021/03/18 07:26:24;;;;;;;9.10;5.55;;;2.50;95.00;;;;;;8325857;28;20056;-68
2021/03/18 07:30:35;;;;;;;13.43;6.47;;;2.80;94.90;;;;;;8321550;28;20052;-67
2021/03/18 07:34:41;;;;;;;14.10;6.53;;;2.70;94.90;;;;;;8336410;28;20037;-68
2021/03/18 07:38:45;;;;;;;13.43;6.38;;;3.10;94.70;;;;;;8322529;28;20462;-68
2021/03/18 07:42:51;;;;;;;11.70;6.85;;;3.30;94.70;;;;;;8306678;28;20063;-67
2021/03/18 07:46:59;;;;;;;11.60;6.28;;;3.50;95.20;;;;;;8320865;28;20115;-67
2021/03/18 07:51:05;;;;;;;10.40;6.40;;;3.60;94.80;;;;;;8338469;28;20054;-68
2021/03/18 07:55:12;;;;;;;11.15;6.10;;;3.80;95.30;;;;;;8302254;28;20061;-68
2021/03/18 07:59:19;;;;;;;12.15;6.30;;;4.00;95.10;;;;;;8325506;28;20076;-68
2021/03/18 08:03:23;;;;;;;14.07;6.45;;;4.00;95.20;;;;;;8342365;28;20136;-68
2021/03/18 08:07:48;;;;;;;10.82;5.65;;;4.10;95.20;;;;;;8335942;28;20137;-68
2021/03/18 08:11:53;;;;;;;9.90;4.70;;;4.20;94.70;;;;;;8323766;28;20044;-68
2021/03/18 08:15:57;;;;;;;10.55;4.10;;;4.30;94.20;;;;;;8329646;28;20053;-68
2021/03/18 08:20:02;;;;;;;7.78;3.85;;;4.40;93.90;;;;;;8325952;28;20124;-68
2021/03/18 08:24:30;;;;;;;8.20;3.55;;;4.70;93.60;;;;;;8324097;28;21394;-68
2021/03/18 08:28:40;;;;;;;7.22;2.25;;;4.80;92.80;;;;;;8326597;28;20605;-68
2021/03/18 08:32:47;;;;;;;3.78;1.48;;;5.00;91.50;;;;;;8320389;28;20144;-67
2021/03/18 08:36:51;;;;;;;5.88;2.17;;;5.20;91.50;;;;;;8326200;28;20064;-68
2021/03/18 08:41:00;;;;;;;4.10;1.57;;;5.20;88.10;;;;;;8323062;28;20128;-67
2021/03/18 08:45:09;;;;;;;2.20;1.20;;;5.20;89.10;;;;;;8336856;28;20052;-68
2021/03/18 08:49:22;;;;;;;3.70;1.77;;;5.30;86.00;;;;;;8331193;28;20057;-69
2021/03/18 08:53:31;;;;;;;3.42;1.55;;;5.30;85.50;;;;;;8321501;28;20115;-67
2021/03/18 08:57:38;;;;;;;4.07;1.20;;;5.50;85.50;;;;;;8338344;28;20426;-67
2021/03/18 09:02:13;;;;;;;4.47;1.05;;;5.70;84.60;;;;;;8319791;28;20175;-67
2021/03/18 09:06:19;;;;;;;1.15;0.77;;;5.60;73.10;;;;;;8298353;28;24350;-68
2021/03/18 09:10:29;;;;;;;4.97;1.52;;;5.50;81.10;;;;;;8330374;28;20060;-69
2021/03/18 09:14:34;;;;;;;6.00;2.00;;;5.50;81.20;;;;;;8323298;28;20053;-68
2021/03/18 09:18:41;;;;;;;7.20;2.33;;;5.40;81.30;;;;;;8324910;28;20079;-68
2021/03/18 09:22:46;;;;;;;6.40;2.72;;;5.50;82.90;;;;;;8325843;28;20622;-67
2021/03/18 09:27:03;;;;;;;6.07;2.88;;;5.40;82.60;;;;;;8321406;28;20079;-68
2021/03/18 09:31:08;;;;;;;5.78;2.67;;;5.40;81.90;;;;;;8348287;28;20060;-68
2021/03/18 09:35:18;;;;;;;5.97;3.22;;;5.70;82.70;;;;;;8320851;28;20435;-68
2021/03/18 09:39:29;;;;;;;5.63;2.97;;;5.60;83.20;;;;;;8338932;28;20416;-67
2021/03/18 09:43:33;;;;;;;6.35;2.70;;;5.90;84.50;;;;;;8319662;28;20419;-67
2021/03/18 09:47:37;;;;;;;6.50;2.33;;;5.90;79.60;;;;;;8318212;28;20052;-68
2021/03/18 09:51:44;;;;;;;4.05;1.80;;;5.80;78.50;;;;;;8327329;28;20075;-67
2021/03/18 09:55:49;;;;;;;5.35;2.10;;;5.90;79.30;;;;;;8317234;28;20046;-68
2021/03/18 09:59:53;;;;;;;3.03;1.50;;;6.10;80.50;;;;;;8321255;28;20412;-68
2021/03/18 10:04:06;;;;;;;3.97;1.23;;;6.10;81.30;;;;;;8322573;28;20566;-68
2021/03/18 10:08:10;;;;;;;4.05;1.80;;;6.20;77.70;;;;;;8321678;28;20053;-67
2021/03/18 10:12:21;;;;;;;1.92;0.95;;;6.30;77.60;;;;;;8317153;28;20503;-68
2021/03/18 10:16:25;;;;;;;4.20;1.52;;;6.40;76.50;;;;;;8320240;28;20104;-67
2021/03/18 10:20:32;;;;;;;3.10;1.60;;;6.40;78.00;;;;;;8320744;28;20049;-67
2021/03/18 10:24:37;;;;;;;3.00;0.80;;;6.60;83.20;;;;;;8323889;28;20063;-67
2021/03/18 10:28:42;;;;;;;4.03;0.80;;;6.80;81.60;;;;;;8325248;28;20052;-67
2021/03/18 10:33:15;;;;;;;4.22;1.90;;;6.70;80.20;;;;;;8328287;28;20037;-68
2021/03/18 10:37:36;;;;;;;4.15;1.45;;;7.00;79.60;;;;;;8316809;28;20072;-67
2021/03/18 10:41:52;;;;;;;4.03;1.60;;;6.90;79.10;;;;;;8320657;28;20057;-67
2021/03/18 10:46:06;;;;;;;4.20;1.35;;;7.10;79.80;;;;;;8340029;28;20890;-68
2021/03/18 10:50:14;;;;;;;2.42;1.30;;;7.10;80.60;;;;;;8302938;28;20049;-68
2021/03/18 10:54:22;;;;;;;4.03;1.23;;;7.10;76.90;;;;;;8330680;28;20508;-68
2021/03/18 10:58:26;;;;;;;2.42;1.00;;;7.20;80.70;;;;;;8318272;28;20352;-67
2021/03/18 11:02:33;;;;;;;5.15;1.48;;;7.50;81.30;;;;;;8325238;28;20052;-68
2021/03/18 11:06:49;;;;;;;5.22;1.27;;;7.20;78.00;;;;;;8320203;28;20519;-67
2021/03/18 11:11:03;;;;;;;3.30;1.00;;;6.40;80.70;;;;;;8321495;28;20441;-68
2021/03/18 11:15:12;;;;;;;3.65;1.05;;;7.60;84.00;;;;;;8330798;28;20087;-68
2021/03/18 11:19:21;;;;;;;2.58;0.95;;;7.80;84.40;;;;;;8317524;28;20411;-68
2021/03/18 11:23:31;;;;;;;2.90;1.17;;;7.70;81.70;;;;;;8304375;28;20053;-66
2021/03/18 11:27:37;;;;;;;2.00;0.70;;;7.60;81.20;;;;;;8320420;28;20186;-72
2021/03/18 11:31:49;;;;;;;4.05;0.95;;;7.50;77.40;;;;;;8317992;28;20423;-72
2021/03/18 11:35:58;;;;;;;2.63;1.00;;;7.70;75.90;;;;;;8328641;28;20602;-71
2021/03/18 11:40:03;;;;;;;3.65;1.10;;;7.50;79.60;;;;;;8325476;28;20111;-71
2021/03/18 11:44:07;;;;;;;2.17;0.80;;;7.40;75.80;;;;;;8315945;28;20045;-72
2021/03/18 11:48:13;;;;;;;4.72;0.70;;;7.60;79.70;;;;;;8336805;28;20064;-71
2021/03/18 11:52:18;;;;;;;1.85;0.70;;;8.10;77.50;;;;;;8324376;28;20128;-68
2021/03/18 11:56:25;;;;;;;2.60;0.85;;;7.40;74.80;;;;;;8329750;28;20061;-67
2021/03/18 12:00:32;;;;;;;2.53;0.70;;;7.50;74.70;;;;;;8313761;28;20561;-68
2021/03/18 12:04:36;;;;;;;1.98;0.80;;;7.40;70.00;;;;;;8313266;28;20053;-68
2021/03/18 12:08:44;;;;;;;1.23;0.40;;;7.40;77.50;;;;;;8332114;28;20073;-67
2021/03/18 12:12:49;;;;;;;0.95;0.47;;;7.60;70.40;;;;;;8319437;28;20041;-67
2021/03/18 12:16:53;;;;;;;1.45;0.50;;;7.60;75.10;;;;;;8322480;28;20049;-67
2021/03/18 12:20:58;;;;;;;1.35;0.43;;;7.50;71.10;;;;;;8315560;28;20037;-67
2021/03/18 12:25:06;;;;;;;2.17;0.40;;;7.70;70.20;;;;;;8315954;28;20057;-68
2021/03/18 12:29:10;;;;;;;1.02;0.40;;;7.80;72.90;;;;;;8314925;28;20045;-68
2021/03/18 12:33:16;;;;;;;1.75;0.52;;;7.80;69.90;;;;;;8340613;28;20118;-68
2021/03/18 12:37:21;;;;;;;2.17;0.50;;;7.80;71.30;;;;;;8329066;28;20045;-68
2021/03/18 12:41:25;;;;;;;2.92;0.63;;;8.10;70.40;;;;;;8320153;28;20465;-68
2021/03/18 12:45:31;;;;;;;5.22;0.50;;;8.00;70.10;;;;;;8322579;28;20045;-68
2021/03/18 12:49:39;;;;;;;2.42;0.70;;;7.90;69.60;;;;;;8323636;28;20285;-68
2021/03/18 12:53:43;;;;;;;0.82;0.40;;;7.80;70.90;;;;;;8347279;28;20519;-68
2021/03/18 12:57:47;;;;;;;3.42;0.70;;;7.70;68.90;;;;;;8320927;28;20063;-68
2021/03/18 13:01:51;;;;;;;0.40;0.30;;;8.90;71.60;;;;;;8318975;28;20519;-67
2021/03/18 13:05:56;;;;;;;3.13;0.60;;;7.50;67.30;;;;;;8324725;28;20148;-67
2021/03/18 13:10:03;;;;;;;2.22;0.90;;;7.50;70.50;;;;;;8340027;28;20529;-66
2021/03/18 13:14:12;;;;;;;1.40;0.50;;;7.90;67.60;;;;;;8315502;28;20057;-68
2021/03/18 13:18:16;;;;;;;0.40;0.30;;;7.40;69.00;;;;;;8321139;28;20056;-66
2021/03/18 13:22:21;;;;;;;1.92;0.65;;;7.40;66.40;;;;;;8328083;28;20045;-66
2021/03/18 13:26:24;;;;;;;1.38;0.50;;;7.80;67.20;;;;;;8327476;28;20049;-66
2021/03/18 13:30:30;;;;;;;1.10;0.50;;;7.30;66.80;;;;;;8337217;28;20249;-67
2021/03/18 13:34:34;;;;;;;1.40;0.40;;;7.50;69.90;;;;;;8334538;28;20064;-67
2021/03/18 13:38:38;;;;;;;3.80;1.05;;;8.40;67.90;;;;;;8338379;28;20533;-67
2021/03/18 13:42:45;;;;;;;2.15;0.60;;;8.00;69.50;;;;;;8336039;28;20077;-66
2021/03/18 13:46:49;;;;;;;1.10;0.55;;;7.60;67.90;;;;;;8324729;28;20582;-67
2021/03/18 13:50:57;;;;;;;3.60;0.93;;;7.50;69.90;;;;;;8332743;28;20127;-66
2021/03/18 13:55:02;;;;;;;1.50;0.63;;;7.70;66.30;;;;;;8321910;28;20467;-66
2021/03/18 13:59:09;;;;;;;1.08;0.40;;;7.90;68.50;;;;;;8320774;28;20562;-67
2021/03/18 14:03:13;;;;;;;1.30;0.43;;;7.60;65.80;;;;;;8334926;28;20045;-66
2021/03/18 14:07:18;;;;;;;1.65;0.93;;;7.50;66.40;;;;;;8321124;28;20474;-68
2021/03/18 14:11:22;;;;;;;1.65;0.82;;;7.60;67.40;;;;;;8334660;28;20528;-66
2021/03/18 14:15:27;;;;;;;1.98;0.60;;;7.40;66.10;;;;;;8326043;28;20596;-66
2021/03/18 14:19:28;;;;;;;0.98;0.40;;;7.50;66.60;;;;;;8315775;28;20056;-66
2021/03/18 14:23:34;;;;;;;1.55;0.60;;;7.30;66.70;;;;;;8287717;28;20053;-66
2021/03/18 14:27:39;;;;;;;1.40;0.55;;;7.30;66.80;;;;;;8331467;28;20041;-66
2021/03/18 14:32:03;;;;;;;1.60;0.57;;;7.90;68.30;;;;;;8321770;28;20083;-67
2021/03/18 14:36:10;;;;;;;2.22;0.70;;;7.50;66.70;;;;;;8328422;28;20049;-67
2021/03/18 14:40:14;;;;;;;;;;;7.50;67.60;;;;;;8319934;28;20086;-66
2021/03/18 14:44:38;;;;;;;2.97;0.70;;;7.60;58.20;;;;;;8320851;28;19932;-67
2021/03/18 14:48:42;;;;;;;2.30;0.70;;;7.50;67.70;;;;;;8320438;28;20056;-67
2021/03/18 14:52:47;;;;;;;7.10;1.00;;;7.70;67.00;;;;;;8303423;28;21309;-67
2021/03/18 14:56:52;;;;;;;1.65;0.80;;;7.50;66.70;;;;;;8323765;28;20059;-67
2021/03/18 15:01:16;;;;;;;2.95;0.70;;;7.40;64.80;;;;;;8316967;28;20525;-67
2021/03/18 15:05:23;;;;;;;6.97;0.63;;;7.30;65.50;;;;;;8313394;28;20234;-67
2021/03/18 15:09:32;;;;;;;2.75;0.68;;;7.10;65.30;;;;;;8332028;28;20060;-66
2021/03/18 15:13:37;;;;;;;1.30;0.63;;;6.90;66.20;;;;;;8337169;28;20474;-67
2021/03/18 15:17:43;;;;;;;2.17;0.80;;;6.80;68.40;;;;;;8328089;28;20144;-67
2021/03/18 15:21:50;;;;;;;3.05;1.13;;;6.80;67.80;;;;;;8315366;28;20523;-67
2021/03/18 15:25:55;;;;;;;2.25;0.80;;;6.70;68.70;;;;;;8322967;28;20064;-67
2021/03/18 15:29:57;;;;;;;2.20;0.90;;;7.00;67.90;;;;;;8298442;28;20045;-67
2021/03/18 15:34:02;;;;;;;2.95;0.80;;;6.90;67.20;;;;;;8320040;28;20068;-67
2021/03/18 15:38:07;;;;;;;3.25;0.85;;;6.90;66.80;;;;;;8336587;28;20128;-66
2021/03/18 15:42:11;;;;;;;3.90;1.02;;;7.00;67.50;;;;;;8317465;28;20055;-67
2021/03/18 15:46:15;;;;;;;1.60;0.75;;;6.70;67.40;;;;;;8303546;28;20156;-68
2021/03/18 15:50:24;;;;;;;4.05;0.60;;;8.00;68.50;;;;;;8330396;28;20069;-66
2021/03/18 15:54:25;;;;;;;2.85;1.20;;;6.70;66.50;;;;;;8323238;28;20553;-66
2021/03/18 15:58:30;;;;;;;4.65;1.40;;;6.70;67.00;;;;;;8289137;28;20081;-67
2021/03/18 16:02:35;;;;;;;1.80;0.75;;;6.70;68.30;;;;;;8319266;28;20049;-66
2021/03/18 16:06:56;;;;;;;2.60;0.88;;;6.70;67.40;;;;;;8316308;28;20461;-67
2021/03/18 16:11:03;;;;;;;2.17;0.90;;;6.80;66.50;;;;;;8303172;28;20118;-67
2021/03/18 16:15:09;;;;;;;2.17;0.57;;;6.70;65.80;;;;;;8341891;28;20046;-67
2021/03/18 16:19:14;;;;;;;2.85;0.68;;;6.60;64.70;;;;;;8320743;28;20507;-67
2021/03/18 16:23:18;;;;;;;3.03;0.82;;;6.40;65.90;;;;;;8336470;28;20408;-66
2021/03/18 16:27:24;;;;;;;2.28;0.60;;;6.30;66.00;;;;;;8326143;28;20307;-66
2021/03/18 16:31:31;;;;;;;1.50;0.70;;;6.40;66.30;;;;;;8324447;28;20400;-69
2021/03/18 16:35:38;;;;;;;4.32;0.80;;;6.40;66.70;;;;;;8325131;28;22049;-66
2021/03/18 16:39:42;;;;;;;2.45;0.80;;;6.40;68.00;;;;;;8338245;28;20041;-66
2021/03/18 16:43:47;;;;;;;4.15;1.02;;;6.40;66.60;;;;;;8325262;28;20126;-66
2021/03/18 16:47:56;;;;;;;3.78;0.80;;;6.70;67.90;;;;;;8330229;28;20466;-67
2021/03/18 16:52:09;;;;;;;3.35;0.50;;;6.30;68.30;;;;;;8332137;28;20049;-66
2021/03/18 16:56:16;;;;;;;2.63;0.80;;;6.30;68.60;;;;;;8309631;28;20067;-68
2021/03/18 17:00:24;;;;;;;1.80;0.88;;;6.20;68.80;;;;;;8323647;28;20057;-66
2021/03/18 17:04:28;;;;;;;10.43;4.72;;;6.30;68.90;;;;;;8321408;28;20099;-66
2021/03/18 17:08:36;;;;;;;11.27;4.70;;;6.10;68.50;;;;;;8329704;28;20045;-67
2021/03/18 17:12:46;;;;;;;10.43;4.55;;;6.30;71.50;;;;;;8330407;28;20140;-67
2021/03/18 17:16:51;;;;;;;1.65;0.70;;;6.20;69.70;;;;;;8316841;28;20045;-67
2021/03/18 17:20:56;;;;;;;2.08;0.75;;;6.00;68.30;;;;;;8345620;28;20049;-67
2021/03/18 17:25:13;;;;;;;2.45;1.20;;;6.10;68.60;;;;;;8334986;28;20396;-67
2021/03/18 17:29:18;;;;;;;2.75;1.00;;;6.10;71.90;;;;;;8300621;28;20139;-66
2021/03/18 17:33:26;;;;;;;3.67;1.67;;;6.10;70.80;;;;;;8324521;28;20521;-66
2021/03/18 17:37:30;;;;;;;2.15;1.10;;;6.00;71.50;;;;;;8336482;28;20068;-66
2021/03/18 17:41:36;;;;;;;3.50;1.42;;;6.00;72.50;;;;;;8329890;28;20107;-66
2021/03/18 17:45:50;;;;;;;4.78;1.25;;;6.00;72.00;;;;;;8350542;28;20144;-66
2021/03/18 17:49:54;;;;;;;2.90;1.38;;;5.90;73.30;;;;;;8341382;28;20431;-65
2021/03/18 17:53:59;;;;;;;5.22;1.55;;;5.80;73.60;;;;;;8312895;28;20052;-67
2021/03/18 17:58:03;;;;;;;4.28;1.77;;;5.80;73.40;;;;;;8330732;28;20486;-66
2021/03/18 18:02:09;;;;;;;3.30;1.00;;;5.70;74.30;;;;;;8316328;28;20052;-66
2021/03/18 18:06:14;;;;;;;3.83;1.20;;;5.70;73.70;;;;;;8325170;28;20053;-66
2021/03/18 18:10:19;;;;;;;3.45;1.23;;;5.40;74.90;;;;;;8323378;28;20053;-67
2021/03/18 18:14:25;;;;;;;2.67;1.30;;;5.60;75.10;;;;;;8326060;28;20261;-66
2021/03/18 18:18:29;;;;;;;3.80;1.35;;;5.50;74.70;;;;;;8327893;28;20141;-66
2021/03/18 18:22:34;;;;;;;3.95;1.90;;;5.60;74.60;;;;;;8339155;28;20336;-66
2021/03/18 18:26:38;;;;;;;5.72;2.50;;;5.30;75.60;;;;;;8329855;28;20071;-66
2021/03/18 18:30:43;;;;;;;9.10;3.58;;;5.00;75.00;;;;;;8326992;28;20049;-66
2021/03/18 18:34:47;;;;;;;16.00;6.55;;;5.20;76.60;;;;;;8322693;28;20685;-66
2021/03/18 18:38:52;;;;;;;31.58;13.52;;;5.20;76.70;;;;;;8330243;28;20049;-66
2021/03/18 18:42:57;;;;;;;28.45;12.75;;;5.10;77.40;;;;;;8355907;28;20051;-66
2021/03/18 18:47:02;;;;;;;28.15;12.35;;;5.10;77.90;;;;;;8326227;28;20118;-66
2021/03/18 18:51:08;;;;;;;21.83;10.70;;;5.00;78.20;;;;;;8326964;28;20036;-67
2021/03/18 18:55:15;;;;;;;13.32;5.93;;;5.00;78.50;;;;;;8325248;28;20106;-66
2021/03/18 18:59:22;;;;;;;10.00;5.32;;;5.00;78.70;;;;;;8321930;28;20077;-66
2021/03/18 19:03:27;;;;;;;9.80;4.10;;;5.00;78.80;;;;;;8345575;28;20033;-66
2021/03/18 19:07:33;;;;;;;6.63;3.50;;;4.90;79.30;;;;;;8326787;28;20056;-66
2021/03/18 19:11:38;;;;;;;6.57;3.95;;;4.80;79.50;;;;;;8344714;28;20049;-66
2021/03/18 19:15:45;;;;;;;5.18;2.88;;;4.70;80.00;;;;;;8331932;28;20144;-66
2021/03/18 19:19:49;;;;;;;7.13;3.50;;;4.50;80.00;;;;;;8333540;28;20060;-71
2021/03/18 19:23:55;;;;;;;5.10;3.20;;;4.50;80.40;;;;;;8309696;28;20051;-71
2021/03/18 19:27:59;;;;;;;5.75;3.10;;;4.50;80.50;;;;;;8299410;28;20097;-70
2021/03/18 19:32:06;;;;;;;10.18;4.05;;;4.40;80.80;;;;;;8306707;28;20533;-71
2021/03/18 19:36:10;;;;;;;6.18;3.90;;;4.60;81.30;;;;;;8322865;28;20049;-70
2021/03/18 19:40:20;;;;;;;6.35;3.78;;;4.20;80.90;;;;;;8323811;28;20158;-71
2021/03/18 19:44:24;;;;;;;6.57;3.70;;;4.50;81.10;;;;;;8307438;28;20787;-71
2021/03/18 19:48:37;;;;;;;6.32;2.95;;;4.60;81.30;;;;;;8312949;28;20064;-71
2021/03/18 19:52:41;;;;;;;9.70;3.15;;;4.00;81.20;;;;;;8309029;28;20063;-70
2021/03/18 19:56:43;;;;;;;5.50;3.03;;;4.10;81.30;;;;;;8317315;28;20065;-70
2021/03/18 20:00:50;;;;;;;4.68;2.85;;;3.80;81.50;;;;;;8323628;28;20488;-70
2021/03/18 20:04:55;;;;;;;7.10;2.60;;;3.80;81.50;;;;;;8317299;28;20143;-70
2021/03/18 20:08:58;;;;;;;8.37;2.77;;;3.70;81.70;;;;;;8309735;28;20572;-70
2021/03/18 20:13:04;;;;;;;6.63;3.15;;;3.60;81.70;;;;;;8316315;28;20059;-70
2021/03/18 20:17:10;;;;;;;6.20;2.85;;;3.60;81.90;;;;;;8340965;28;20049;-70
2021/03/18 20:21:23;;;;;;;6.28;3.55;;;3.50;82.20;;;;;;8316240;28;20095;-70
2021/03/18 20:25:27;;;;;;;8.40;3.92;;;3.50;81.90;;;;;;8316393;28;20487;-69
2021/03/18 20:29:29;;;;;;;8.85;3.88;;;3.40;82.10;;;;;;8312315;28;20114;-70
2021/03/18 20:33:34;;;;;;;8.30;3.38;;;3.40;82.10;;;;;;8314102;28;20044;-70
2021/03/18 20:37:38;;;;;;;8.35;2.85;;;3.30;82.20;;;;;;8323913;28;20052;-70
2021/03/18 20:41:42;;;;;;;5.32;2.63;;;3.30;82.40;;;;;;8319213;28;20056;-70
2021/03/18 20:45:46;;;;;;;6.38;2.70;;;3.20;82.30;;;;;;8311743;28;20059;-69
2021/03/18 20:49:51;;;;;;;4.70;2.20;;;3.10;82.20;;;;;;8324043;28;20080;-70
2021/03/18 20:53:58;;;;;;;5.30;2.38;;;3.10;82.20;;;;;;8296861;28;21234;-69
2021/03/18 20:58:05;;;;;;;4.40;2.10;;;3.00;82.20;;;;;;8321196;28;20355;-69
2021/03/18 21:02:11;;;;;;;4.70;2.03;;;2.90;82.30;;;;;;8325901;28;20410;-70
2021/03/18 21:06:16;;;;;;;4.28;1.95;;;2.80;82.40;;;;;;8329126;28;20053;-69
2021/03/18 21:10:22;;;;;;;3.70;1.70;;;2.80;82.40;;;;;;8324255;28;20076;-69
2021/03/18 21:14:26;;;;;;;4.53;2.20;;;2.70;82.50;;;;;;8351535;28;20052;-69
2021/03/18 21:18:30;;;;;;;4.13;1.80;;;3.80;83.50;;;;;;8327721;28;20049;-69
2021/03/18 21:22:35;;;;;;;5.35;2.22;;;2.70;82.70;;;;;;8305371;28;20076;-69
2021/03/18 21:26:42;;;;;;;5.82;2.38;;;2.60;82.80;;;;;;8304055;28;20044;-69
2021/03/18 21:30:46;;;;;;;8.32;2.90;;;2.50;82.70;;;;;;8285867;28;20061;-69
2021/03/18 21:34:57;;;;;;;6.35;2.78;;;2.50;82.90;;;;;;8316748;28;20098;-71
2021/03/18 21:38:58;;;;;;;6.07;2.88;;;2.50;82.90;;;;;;8312476;28;20045;-71
2021/03/18 21:43:05;;;;;;;6.93;2.70;;;2.50;82.70;;;;;;8309937;28;20055;-70